Time;durP1;ratioP1;P1;durP2;ratioP2;P2;SDS_P1;SDS_P2;PMS_P1;PMS_P2;Temp;Humidity;BMP_temperature;BMP_pressure;BME280_temperature;BME280_humidity;BME280_pressure;Samples;Min_cycle;Max_cycle;Signal;HPM_P1;HPM_P2
2023/01/24 00:00:05;;;;;;;4.78;3.42;;;;;;;;;;6176263;23;20570;-51
2023/01/24 00:02:38;;;;;;;6.68;4.18;;;;;;;;;;6176790;23;20471;-51
2023/01/24 00:05:06;;;;;;;10.98;4.03;;;;;;;;;;6178023;23;20032;-50
2023/01/24 00:07:33;;;;;;;7.00;3.75;;;;;;;;;;6176720;23;20033;-52
2023/01/24 00:10:07;;;;;;;9.95;3.85;;;;;;;;;;6178052;23;20024;-50
2023/01/24 00:12:34;;;;;;;;;;;;;;;;;;6180158;23;20053;-53
2023/01/24 00:15:08;;;;;;;8.95;4.10;;;;;;;;;;6177360;23;19999;-60
2023/01/24 00:17:35;;;;;;;;;;;;;;;;;;6112319;23;20126;-60
2023/01/24 00:20:08;;;;;;;12.45;3.70;;;;;;;;;;6088662;23;19956;-54
2023/01/24 00:22:42;;;;;;;6.85;3.45;;;;;;;;;;6089725;23;20101;-56
2023/01/24 00:25:10;;;;;;;10.85;3.75;;;;;;;;;;6089110;23;20026;-57
2023/01/24 00:27:43;;;;;;;11.30;4.50;;;;;;;;;;6089079;23;20097;-55
2023/01/24 00:30:11;;;;;;;10.05;4.13;;;;;;;;;;6088002;23;20030;-55
2023/01/24 00:32:38;;;;;;;9.48;3.78;;;;;;;;;;6089267;23;20027;-56
2023/01/24 00:35:11;;;;;;;7.95;3.85;;;;;;;;;;6089944;23;20097;-51
2023/01/24 00:37:38;;;;;;;7.55;3.67;;;;;;;;;;6084408;23;20026;-70
2023/01/24 00:40:13;;;;;;;10.57;3.92;;;;;;;;;;6089380;23;20098;-70
2023/01/24 00:42:40;;;;;;;8.15;4.20;;;;;;;;;;6084797;23;20022;-68
2023/01/24 00:45:07;;;;;;;7.57;3.45;;;;;;;;;;6089642;23;20065;-69
2023/01/24 00:47:41;;;;;;;8.00;4.07;;;;;;;;;;6090250;23;20568;-69
2023/01/24 00:50:09;;;;;;;8.02;3.70;;;;;;;;;;6090444;23;20030;-69
2023/01/24 00:52:36;;;;;;;11.38;3.80;;;;;;;;;;6091262;23;20033;-59
2023/01/24 00:55:10;;;;;;;6.65;3.75;;;;;;;;;;6090743;23;20026;-63
2023/01/24 00:57:37;;;;;;;9.48;3.83;;;;;;;;;;6091147;23;20109;-63
2023/01/24 01:00:12;;;;;;;6.97;3.60;;;;;;;;;;6089359;23;20026;-63
2023/01/24 01:02:39;;;;;;;10.57;4.00;;;;;;;;;;6089798;23;20547;-63
2023/01/24 01:05:07;;;;;;;12.00;3.72;;;;;;;;;;6090176;23;20691;-64
2023/01/24 01:07:40;;;;;;;8.50;3.83;;;;;;;;;;6089429;23;20034;-63
2023/01/24 01:10:08;;;;;;;9.45;3.95;;;;;;;;;;6089568;23;20026;-70
2023/01/24 01:12:41;;;;;;;8.15;4.03;;;;;;;;;;6091847;23;20098;-64
2023/01/24 01:15:09;;;;;;;5.75;3.83;;;;;;;;;;6090842;23;20057;-69
2023/01/24 01:17:36;;;;;;;10.50;4.30;;;;;;;;;;6109406;23;20057;-69
2023/01/24 01:20:10;;;;;;;10.80;4.00;;;;;;;;;;6119935;23;20428;-70
2023/01/24 01:22:37;;;;;;;;;;;;;;;;;;6121191;23;20052;-70
2023/01/24 01:25:10;;;;;;;6.55;4.05;;;;;;;;;;6119819;23;19932;-70
2023/01/24 01:27:37;;;;;;;8.20;3.70;;;;;;;;;;6120687;23;20049;-70
2023/01/24 01:30:05;;;;;;;10.40;4.10;;;;;;;;;;6119668;23;20068;-52
2023/01/24 01:32:38;;;;;;;11.45;4.88;;;;;;;;;;6148920;23;20028;-63
2023/01/24 01:35:05;;;;;;;8.95;4.20;;;;;;;;;;6148361;23;20104;-63
2023/01/24 01:37:39;;;;;;;7.88;4.13;;;;;;;;;;6148306;23;20064;-62
2023/01/24 01:40:07;;;;;;;7.50;4.10;;;;;;;;;;6149353;23;20076;-64
2023/01/24 01:42:40;;;;;;;15.10;4.63;;;;;;;;;;6149438;23;20548;-63
2023/01/24 01:45:30;;;;;;;10.70;4.55;;;;;;;;;;6149829;23;20069;-63
2023/01/24 01:47:57;;;;;;;12.45;4.68;;;;;;;;;;6147910;23;20108;-60
2023/01/24 01:50:34;;;;;;;11.68;4.50;;;;;;;;;;6149494;23;20026;-70
2023/01/24 01:53:02;;;;;;;7.70;4.10;;;;;;;;;;6149182;23;20056;-69
2023/01/24 01:55:37;;;;;;;10.05;4.25;;;;;;;;;;6148808;23;20836;-70
2023/01/24 01:58:04;;;;;;;11.70;4.28;;;;;;;;;;6149549;23;20079;-69
2023/01/24 02:00:38;;;;;;;10.65;4.20;;;;;;;;;;6149031;23;20711;-69
2023/01/24 02:06:01;;;;;;;10.02;4.32;;;;;;;;;;6149070;23;20092;-50
2023/01/24 02:08:29;;;;;;;10.65;4.00;;;;;;;;;;6148009;23;20507;-59
2023/01/24 02:16:01;;;;;;;7.32;3.97;;;;;;;;;;6147696;23;20718;-60
2023/01/24 02:16:49;;;;;;;9.45;4.43;;;;;;;;;;6133611;23;20053;-59
2023/01/24 02:19:32;;;;;;;13.07;4.00;;;;;;;;;;6090795;23;20072;-60
2023/01/24 02:22:12;;;;;;;11.52;4.70;;;;;;;;;;6089872;23;20058;-59
2023/01/24 02:24:48;;;;;;;14.98;4.18;;;;;;;;;;6088601;23;20025;-45
2023/01/24 02:27:16;;;;;;;7.40;4.13;;;;;;;;;;6079676;23;20031;-48
2023/01/24 02:29:50;;;;;;;8.45;4.07;;;;;;;;;;6088294;23;20474;-50
2023/01/24 02:32:18;;;;;;;;;;;;;;;;;;6091762;23;20102;-46
2023/01/24 02:34:51;;;;;;;9.00;4.88;;;;;;;;;;6087899;23;20391;-48
2023/01/24 02:37:19;;;;;;;7.68;3.70;;;;;;;;;;6090179;23;20068;-50
2023/01/24 02:39:58;;;;;;;8.27;4.53;;;;;;;;;;6088479;23;20054;-47
2023/01/24 02:42:27;;;;;;;10.05;4.10;;;;;;;;;;6089238;23;20023;-48
2023/01/24 02:45:03;;;;;;;12.68;4.22;;;;;;;;;;6088423;23;20062;-59
2023/01/24 02:47:32;;;;;;;8.70;4.43;;;;;;;;;;6089014;23;20032;-60
2023/01/24 02:50:08;;;;;;;17.55;4.78;;;;;;;;;;6089315;23;20078;-59
2023/01/24 02:55:27;;;;;;;14.43;5.13;;;;;;;;;;6090347;23;20057;-60
2023/01/24 02:58:07;;;;;;;10.55;4.85;;;;;;;;;;6090178;23;20049;-60
2023/01/24 03:00:42;;;;;;;12.35;4.70;;;;;;;;;;6088399;23;20545;-71
2023/01/24 03:03:09;;;;;;;15.38;4.38;;;;;;;;;;6090703;23;20045;-47
2023/01/24 03:05:56;;;;;;;12.43;5.22;;;;;;;;;;6084205;23;20093;-51
2023/01/24 03:08:31;;;;;;;11.13;4.40;;;;;;;;;;6090055;23;20122;-52
2023/01/24 03:10:58;;;;;;;9.45;4.55;;;;;;;;;;6087320;23;20110;-53
2023/01/24 03:36:35;;;;;;;13.45;5.30;;;;;;;;;;6117685;23;20026;-63
2023/01/24 03:41:55;;;;;;;11.73;5.93;;;;;;;;;;6118032;23;20128;-71
2023/01/24 03:44:23;;;;;;;;;;;;;;;;;;6118965;23;20413;-70
2023/01/24 03:46:50;;;;;;;13.98;5.68;;;;;;;;;;6118398;23;19921;-72
2023/01/24 03:52:26;;;;;;;12.25;5.70;;;;;;;;;;6118942;23;20022;-71
2023/01/24 03:55:00;;;;;;;12.18;5.70;;;;;;;;;;6119298;23;20056;-69
2023/01/24 03:57:28;;;;;;;11.73;5.65;;;;;;;;;;6118171;23;20057;-55
2023/01/24 04:00:01;;;;;;;13.27;6.43;;;;;;;;;;6118717;23;20101;-54
2023/01/24 04:02:29;;;;;;;10.35;5.55;;;;;;;;;;6117758;23;20022;-53
2023/01/24 04:05:12;;;;;;;15.15;6.15;;;;;;;;;;6118836;23;20089;-51
2023/01/24 04:07:39;;;;;;;17.45;6.60;;;;;;;;;;6118535;23;20033;-55
2023/01/24 04:10:13;;;;;;;15.60;6.20;;;;;;;;;;6119111;23;20542;-53
2023/01/24 04:12:41;;;;;;;14.05;6.97;;;;;;;;;;6118069;23;20243;-50
2023/01/24 04:15:09;;;;;;;12.18;6.30;;;;;;;;;;6119514;23;20054;-50
2023/01/24 04:17:49;;;;;;;18.67;6.40;;;;;;;;;;6117648;23;20057;-62
2023/01/24 04:20:23;;;;;;;13.32;5.90;;;;;;;;;;6118794;23;20096;-62
2023/01/24 04:23:00;;;;;;;16.15;6.82;;;;;;;;;;6119040;23;20105;-62
2023/01/24 04:25:27;;;;;;;16.13;6.53;;;;;;;;;;6119012;23;20108;-63
2023/01/24 04:27:55;;;;;;;17.98;7.13;;;;;;;;;;6117792;23;20080;-62
2023/01/24 04:30:28;;;;;;;18.27;7.43;;;;;;;;;;6118697;23;20053;-62
2023/01/24 04:32:56;;;;;;;18.05;7.43;;;;;;;;;;6118481;23;20105;-72
2023/01/24 04:35:30;;;;;;;17.75;7.43;;;;;;;;;;6117587;23;20546;-53
2023/01/24 04:37:58;;;;;;;19.80;7.45;;;;;;;;;;6119322;23;20029;-49
2023/01/24 04:40:25;;;;;;;21.70;8.52;;;;;;;;;;6118283;23;20547;-53
2023/01/24 04:42:58;;;;;;;19.77;6.85;;;;;;;;;;6119531;23;20081;-51
2023/01/24 04:45:26;;;;;;;17.58;7.22;;;;;;;;;;6118322;23;20022;-49
2023/01/24 04:47:59;;;;;;;20.92;7.07;;;;;;;;;;6119374;23;20072;-52
2023/01/24 04:50:26;;;;;;;19.50;7.15;;;;;;;;;;6117758;23;20037;-58
2023/01/24 04:52:54;;;;;;;18.63;7.32;;;;;;;;;;6118924;23;20105;-56
2023/01/24 04:55:27;;;;;;;19.23;7.90;;;;;;;;;;6117659;23;20102;-46
2023/01/24 04:57:54;;;;;;;22.08;7.03;;;;;;;;;;6116677;23;20032;-49
2023/01/24 05:00:29;;;;;;;15.35;6.88;;;;;;;;;;6118147;23;20042;-46
2023/01/24 05:02:56;;;;;;;20.83;7.82;;;;;;;;;;6092484;23;20100;-50
2023/01/24 05:05:23;;;;;;;16.67;7.20;;;;;;;;;;6118026;23;20503;-47
2023/01/24 05:07:56;;;;;;;13.00;6.72;;;;;;;;;;6118897;23;20053;-47
2023/01/24 05:10:24;;;;;;;19.75;7.22;;;;;;;;;;6119360;23;20022;-71
2023/01/24 05:12:57;;;;;;;24.70;7.28;;;;;;;;;;6119193;23;20101;-51
2023/01/24 05:15:25;;;;;;;20.23;9.05;;;;;;;;;;6118067;23;20068;-51
2023/01/24 05:17:53;;;;;;;20.17;7.68;;;;;;;;;;6118105;23;20799;-52
2023/01/24 05:20:33;;;;;;;19.90;7.72;;;;;;;;;;6119286;23;20494;-50
2023/01/24 05:23:00;;;;;;;18.42;7.97;;;;;;;;;;6117061;23;20022;-52
2023/01/24 05:25:34;;;;;;;20.55;7.93;;;;;;;;;;6116129;23;20030;-51
2023/01/24 05:28:01;;;;;;;17.33;6.25;;;;;;;;;;6117890;23;20420;-48
2023/01/24 05:30:28;;;;;;;16.83;7.55;;;;;;;;;;6117945;23;20097;-60
2023/01/24 05:33:03;;;;;;;21.75;7.97;;;;;;;;;;6117918;23;20049;-60
2023/01/24 05:35:30;;;;;;;23.25;7.43;;;;;;;;;;6118991;23;20641;-60
2023/01/24 05:37:57;;;;;;;15.95;7.28;;;;;;;;;;6119654;23;20032;-60
2023/01/24 05:40:31;;;;;;;13.65;7.10;;;;;;;;;;6115000;23;20105;-60
2023/01/24 05:42:58;;;;;;;19.30;7.65;;;;;;;;;;6119101;23;20058;-60
2023/01/24 05:45:32;;;;;;;18.08;7.35;;;;;;;;;;6117233;23;20072;-60
2023/01/24 05:47:59;;;;;;;17.88;7.95;;;;;;;;;;6117283;23;20542;-69
2023/01/24 05:50:27;;;;;;;22.50;6.97;;;;;;;;;;6117389;23;20030;-72
2023/01/24 05:53:01;;;;;;;18.15;6.07;;;;;;;;;;6116587;23;20094;-72
2023/01/24 05:55:29;;;;;;;20.98;7.63;;;;;;;;;;6115786;23;20097;-71
2023/01/24 05:58:02;;;;;;;16.50;7.72;;;;;;;;;;6119390;23;20057;-71
2023/01/24 06:00:30;;;;;;;20.05;7.68;;;;;;;;;;6119951;23;20089;-71
2023/01/24 06:03:04;;;;;;;18.50;6.72;;;;;;;;;;6118066;23;20404;-70
2023/01/24 06:05:31;;;;;;;20.75;7.65;;;;;;;;;;6120915;23;20776;-55
2023/01/24 06:07:58;;;;;;;18.85;8.02;;;;;;;;;;6120594;23;20061;-68
2023/01/24 06:10:31;;;;;;;29.50;7.72;;;;;;;;;;6119734;23;20491;-69
2023/01/24 06:13:05;;;;;;;19.95;7.57;;;;;;;;;;6095599;23;20100;-68
2023/01/24 06:15:32;;;;;;;22.42;7.72;;;;;;;;;;6120784;23;20057;-69
2023/01/24 06:18:00;;;;;;;19.80;7.90;;;;;;;;;;6119264;23;20030;-68
2023/01/24 06:20:34;;;;;;;24.27;7.38;;;;;;;;;;6120352;23;20110;-69
2023/01/24 06:23:05;;;;;;;20.27;7.50;;;;;;;;;;6119960;23;20081;-59
2023/01/24 06:25:33;;;;;;;22.60;7.47;;;;;;;;;;6117803;23;20045;-50
2023/01/24 06:28:08;;;;;;;21.15;7.85;;;;;;;;;;6120722;23;20060;-46
2023/01/24 06:30:42;;;;;;;27.88;8.32;;;;;;;;;;6120093;23;20076;-48
2023/01/24 06:33:18;;;;;;;24.95;8.07;;;;;;;;;;6149074;23;20022;-48
2023/01/24 06:35:54;;;;;;;23.38;8.32;;;;;;;;;;6149319;23;20152;-48
2023/01/24 06:38:27;;;;;;;27.30;8.38;;;;;;;;;;6149691;23;20104;-49
2023/01/24 06:41:02;;;;;;;23.80;8.18;;;;;;;;;;6148617;23;20031;-48
2023/01/24 06:43:35;;;;;;;23.98;8.50;;;;;;;;;;6150345;23;20124;-53
2023/01/24 06:46:10;;;;;;;25.90;8.52;;;;;;;;;;6149857;23;20089;-46
2023/01/24 06:48:37;;;;;;;25.02;8.73;;;;;;;;;;6149249;23;20068;-47
2023/01/24 06:51:04;;;;;;;29.13;9.18;;;;;;;;;;6148071;23;20104;-47
2023/01/24 06:53:38;;;;;;;20.30;8.55;;;;;;;;;;6149710;23;20049;-47
2023/01/24 06:56:06;;;;;;;31.58;9.18;;;;;;;;;;6147802;23;20403;-45
2023/01/24 06:58:40;;;;;;;25.70;8.32;;;;;;;;;;6149265;23;20467;-52
2023/01/24 07:01:08;;;;;;;23.58;8.07;;;;;;;;;;6148634;23;20029;-45
2023/01/24 07:03:35;;;;;;;26.77;9.45;;;;;;;;;;6149430;23;20024;-62
2023/01/24 07:06:08;;;;;;;21.85;8.18;;;;;;;;;;6148232;23;20022;-62
2023/01/24 07:08:35;;;;;;;29.85;8.75;;;;;;;;;;6147611;23;20064;-63
2023/01/24 07:11:10;;;;;;;34.13;9.38;;;;;;;;;;6148856;23;20061;-61
2023/01/24 07:13:37;;;;;;;34.40;10.32;;;;;;;;;;6149472;23;20060;-62
2023/01/24 07:16:04;;;;;;;25.35;9.48;;;;;;;;;;6148904;23;20060;-62
2023/01/24 07:18:51;;;;;;;28.42;10.35;;;;;;;;;;6110702;23;20046;-50
2023/01/24 07:21:25;;;;;;;25.03;9.30;;;;;;;;;;6090753;23;20023;-72
2023/01/24 07:24:00;;;;;;;32.10;10.00;;;;;;;;;;6089015;23;20357;-70
2023/01/24 07:26:27;;;;;;;32.63;10.25;;;;;;;;;;6089525;23;20026;-70
2023/01/24 07:28:54;;;;;;;25.42;10.85;;;;;;;;;;6089640;23;20129;-71
2023/01/24 07:31:27;;;;;;;28.73;10.55;;;;;;;;;;6090015;23;20066;-71
2023/01/24 07:33:55;;;;;;;45.80;11.25;;;;;;;;;;6088544;23;20113;-71
2023/01/24 07:36:22;;;;;;;27.63;9.55;;;;;;;;;;6089528;23;20109;-62
2023/01/24 07:38:56;;;;;;;28.60;11.48;;;;;;;;;;6090401;23;20026;-57
2023/01/24 07:41:23;;;;;;;29.40;10.52;;;;;;;;;;6090827;23;20022;-56
2023/01/24 07:43:57;;;;;;;28.75;10.18;;;;;;;;;;6090152;23;20026;-55
2023/01/24 07:46:24;;;;;;;26.65;10.93;;;;;;;;;;6089313;23;20097;-55
2023/01/24 07:48:51;;;;;;;38.30;11.73;;;;;;;;;;6090717;23;20108;-57
2023/01/24 07:51:32;;;;;;;28.85;10.05;;;;;;;;;;6089239;23;20057;-55
2023/01/24 07:53:59;;;;;;;34.83;10.32;;;;;;;;;;6088703;23;20030;-53
2023/01/24 07:56:42;;;;;;;28.63;10.73;;;;;;;;;;6088969;23;20026;-58
2023/01/24 07:59:09;;;;;;;38.88;12.02;;;;;;;;;;6090615;23;20113;-67
2023/01/24 08:01:48;;;;;;;30.83;9.07;;;;;;;;;;6089605;23;20029;-67
2023/01/24 08:04:16;;;;;;;32.63;10.10;;;;;;;;;;6078630;23;20408;-67
2023/01/24 08:07:16;;;;;;;31.83;11.68;;;;;;;;;;6089962;23;20057;-67
2023/01/24 08:09:36;;;;;;;28.92;9.80;;;;;;;;;;6088498;23;20101;-67
2023/01/24 08:12:04;;;;;;;44.35;12.68;;;;;;;;;;6089574;23;20508;-66
2023/01/24 08:14:31;;;;;;;23.60;11.43;;;;;;;;;;6089880;23;20507;-48
2023/01/24 08:17:04;;;;;;;34.08;10.57;;;;;;;;;;6089301;23;20054;-62
2023/01/24 08:19:39;;;;;;;28.15;10.95;;;;;;;;;;6117202;23;20061;-63
2023/01/24 08:22:23;;;;;;;33.03;10.43;;;;;;;;;;6149486;23;20032;-63
2023/01/24 08:24:50;;;;;;;34.38;12.10;;;;;;;;;;6148039;23;20051;-62
2023/01/24 08:27:23;;;;;;;34.92;11.57;;;;;;;;;;6148565;23;20021;-63
2023/01/24 08:29:51;;;;;;;44.60;11.77;;;;;;;;;;6147797;23;20105;-63
2023/01/24 08:32:18;;;;;;;25.15;10.27;;;;;;;;;;6148250;23;20049;-49
2023/01/24 08:34:52;;;;;;;33.63;10.93;;;;;;;;;;6149131;23;20025;-47
2023/01/24 08:37:19;;;;;;;30.48;11.35;;;;;;;;;;6147115;23;20021;-49
2023/01/24 08:39:46;;;;;;;36.38;13.15;;;;;;;;;;6148902;23;20057;-48
2023/01/24 08:42:19;;;;;;;30.75;11.20;;;;;;;;;;6143785;23;20774;-49
2023/01/24 08:44:46;;;;;;;38.20;11.23;;;;;;;;;;6147448;23;20057;-49
2023/01/24 08:47:20;;;;;;;34.92;10.77;;;;;;;;;;6144077;23;20101;-50
2023/01/24 08:49:48;;;;;;;31.05;10.43;;;;;;;;;;6148979;23;20052;-66
2023/01/24 08:52:16;;;;;;;35.25;11.00;;;;;;;;;;6148017;23;20108;-71
2023/01/24 08:54:49;;;;;;;45.17;11.77;;;;;;;;;;6148345;23;20509;-60
2023/01/24 08:57:16;;;;;;;37.38;11.23;;;;;;;;;;6149001;23;20044;-61
2023/01/24 08:59:51;;;;;;;42.90;13.10;;;;;;;;;;6146940;23;20052;-60
2023/01/24 09:02:18;;;;;;;29.88;11.77;;;;;;;;;;6148226;23;20133;-60
2023/01/24 09:04:52;;;;;;;35.13;11.80;;;;;;;;;;6146376;23;20538;-60
2023/01/24 09:07:19;;;;;;;46.83;12.57;;;;;;;;;;6148031;23;20384;-61
2023/01/24 09:09:46;;;;;;;39.63;11.88;;;;;;;;;;6148030;23;20053;-60
2023/01/24 09:12:19;;;;;;;36.75;12.35;;;;;;;;;;6148964;23;20108;-58
2023/01/24 09:14:47;;;;;;;35.78;12.55;;;;;;;;;;6150134;23;20612;-59
2023/01/24 09:17:14;;;;;;;46.35;12.30;;;;;;;;;;6149140;23;20029;-59
2023/01/24 09:19:54;;;;;;;44.20;13.40;;;;;;;;;;6120762;23;20105;-57
2023/01/24 09:22:21;;;;;;;44.35;13.13;;;;;;;;;;6121127;23;20628;-58
2023/01/24 09:24:56;;;;;;;57.28;14.48;;;;;;;;;;6119932;23;20069;-59
2023/01/24 09:27:23;;;;;;;45.22;13.43;;;;;;;;;;6120855;23;20081;-63
2023/01/24 09:29:50;;;;;;;36.22;13.00;;;;;;;;;;6120022;23;20026;-46
2023/01/24 09:32:23;;;;;;;51.28;13.40;;;;;;;;;;6120896;23;20021;-47
2023/01/24 09:34:51;;;;;;;51.88;14.18;;;;;;;;;;6121602;23;20089;-47
2023/01/24 09:37:19;;;;;;;48.88;13.40;;;;;;;;;;6093244;23;20021;-47
2023/01/24 09:39:55;;;;;;;41.45;13.30;;;;;;;;;;6121494;23;20076;-47
2023/01/24 09:42:26;;;;;;;49.47;13.55;;;;;;;;;;6121075;23;20028;-51
2023/01/24 09:45:07;;;;;;;37.63;13.45;;;;;;;;;;6120282;23;20403;-58
2023/01/24 09:47:55;;;;;;;51.20;14.10;;;;;;;;;;6119769;23;20096;-50
2023/01/24 09:50:41;;;;;;;42.53;13.35;;;;;;;;;;6109038;23;20100;-49
2023/01/24 09:53:17;;;;;;;54.05;14.07;;;;;;;;;;6120545;23;20423;-48
2023/01/24 09:55:52;;;;;;;48.70;14.20;;;;;;;;;;6120414;23;20057;-50
2023/01/24 09:58:43;;;;;;;45.80;14.27;;;;;;;;;;6119982;23;20049;-49
2023/01/24 10:01:16;;;;;;;48.10;13.20;;;;;;;;;;6120508;23;20085;-48
2023/01/24 10:03:44;;;;;;;50.20;13.93;;;;;;;;;;6119586;23;20049;-67
2023/01/24 10:06:23;;;;;;;47.85;14.15;;;;;;;;;;6108119;23;20022;-67
2023/01/24 10:09:02;;;;;;;67.93;16.17;;;;;;;;;;6119175;23;20112;-67
2023/01/24 10:12:02;;;;;;;53.45;14.93;;;;;;;;;;6120690;23;20045;-67
2023/01/24 10:14:29;;;;;;;59.22;14.23;;;;;;;;;;6120458;23;20026;-67
2023/01/24 10:17:15;;;;;;;51.78;13.90;;;;;;;;;;6119963;23;20026;-67
2023/01/24 10:20:07;;;;;;;42.47;12.98;;;;;;;;;;6118192;23;20717;-67
2023/01/24 10:22:52;;;;;;;38.33;13.55;;;;;;;;;;6119630;23;20053;-73
2023/01/24 10:25:22;;;;;;;48.17;13.93;;;;;;;;;;6119495;23;20381;-53
2023/01/24 10:27:57;;;;;;;37.92;14.02;;;;;;;;;;6120107;23;20563;-51
2023/01/24 10:30:30;;;;;;;45.85;14.45;;;;;;;;;;6119257;23;20088;-48
2023/01/24 10:33:05;;;;;;;43.47;13.95;;;;;;;;;;6119857;23;20022;-49
2023/01/24 10:35:52;;;;;;;39.15;12.73;;;;;;;;;;6119238;23;20412;-51
2023/01/24 10:38:26;;;;;;;47.15;13.27;;;;;;;;;;6119953;23;20022;-50
2023/01/24 10:40:53;;;;;;;;;;;;;;;;;;6119713;23;20100;-68
2023/01/24 10:43:23;;;;;;;33.72;11.82;;;;;;;;;;6120289;23;19928;-59
2023/01/24 10:45:57;;;;;;;43.83;12.65;;;;;;;;;;6148923;23;20112;-57
2023/01/24 10:48:33;;;;;;;46.03;15.32;;;;;;;;;;6149614;23;20388;-59
2023/01/24 10:51:10;;;;;;;57.42;15.60;;;;;;;;;;6147851;23;20049;-58
2023/01/24 10:53:44;;;;;;;43.30;14.05;;;;;;;;;;6149644;23;20814;-59
2023/01/24 10:56:19;;;;;;;46.30;13.77;;;;;;;;;;6143827;23;20028;-59
2023/01/24 10:58:55;;;;;;;59.35;15.50;;;;;;;;;;6149671;23;20100;-61
2023/01/24 11:01:33;;;;;;;42.13;14.60;;;;;;;;;;6145391;23;20029;-59
2023/01/24 11:04:28;;;;;;;44.92;14.88;;;;;;;;;;6149460;23;20105;-59
2023/01/24 11:06:55;;;;;;;49.75;14.00;;;;;;;;;;6149207;23;20555;-59
2023/01/24 11:09:31;;;;;;;41.50;13.38;;;;;;;;;;6148548;23;20100;-59
2023/01/24 11:11:59;;;;;;;36.72;14.02;;;;;;;;;;6145450;23;20060;-59
2023/01/24 11:14:34;;;;;;;37.90;15.63;;;;;;;;;;6147486;23;20092;-58
2023/01/24 11:17:02;;;;;;;41.75;14.15;;;;;;;;;;6145680;23;20025;-59
2023/01/24 11:19:42;;;;;;;34.60;13.43;;;;;;;;;;6095235;23;20030;-69
2023/01/24 11:22:24;;;;;;;30.00;12.20;;;;;;;;;;6089807;23;20022;-69
2023/01/24 11:25:00;;;;;;;36.05;13.02;;;;;;;;;;6087121;23;20022;-68
2023/01/24 11:27:27;;;;;;;33.15;13.27;;;;;;;;;;6089279;23;20106;-69
2023/01/24 11:30:05;;;;;;;41.90;12.73;;;;;;;;;;6088442;23;20479;-68
2023/01/24 11:32:32;;;;;;;34.60;13.35;;;;;;;;;;6089530;23;20146;-69
2023/01/24 11:35:09;;;;;;;40.13;14.35;;;;;;;;;;6089956;23;20061;-49
2023/01/24 11:38:01;;;;;;;37.72;13.73;;;;;;;;;;6089670;23;20412;-46
2023/01/24 11:40:39;;;;;;;37.63;13.52;;;;;;;;;;6090328;23;20227;-46
2023/01/24 11:43:13;;;;;;;39.50;13.88;;;;;;;;;;6089075;23;20570;-48
2023/01/24 11:45:56;;;;;;;40.05;15.02;;;;;;;;;;6084876;23;20794;-48
2023/01/24 11:48:39;;;;;;;38.03;14.20;;;;;;;;;;6088817;23;20105;-47
2023/01/24 11:51:29;;;;;;;41.58;13.70;;;;;;;;;;6087766;23;20399;-47
2023/01/24 11:54:02;;;;;;;26.40;10.73;;;;;;;;;;6090624;23;20032;-57
2023/01/24 11:56:35;;;;;;;27.52;11.77;;;;;;;;;;6089625;23;20026;-60
2023/01/24 11:59:24;;;;;;;36.28;13.25;;;;;;;;;;6090447;23;20101;-60
2023/01/24 12:02:04;;;;;;;37.28;13.27;;;;;;;;;;6088960;23;20071;-60
2023/01/24 12:04:59;;;;;;;34.53;13.00;;;;;;;;;;6089960;23;20041;-61
2023/01/24 12:07:29;;;;;;;30.17;13.00;;;;;;;;;;6090402;23;20118;-60
2023/01/24 12:10:19;;;;;;;25.33;11.57;;;;;;;;;;6089280;23;20427;-60
2023/01/24 12:12:50;;;;;;;29.67;12.65;;;;;;;;;;6089900;23;20074;-52
2023/01/24 12:15:27;;;;;;;35.05;12.73;;;;;;;;;;6089745;23;20033;-68
2023/01/24 12:18:13;;;;;;;37.10;13.00;;;;;;;;;;6093177;23;20041;-68
2023/01/24 12:20:48;;;;;;;45.47;14.75;;;;;;;;;;6147679;23;20021;-68
2023/01/24 12:23:35;;;;;;;37.45;14.50;;;;;;;;;;6147863;23;20101;-68
2023/01/24 12:26:14;;;;;;;38.58;13.93;;;;;;;;;;6149342;23;20021;-68
2023/01/24 12:28:55;;;;;;;38.08;13.52;;;;;;;;;;6142965;23;20617;-68
2023/01/24 12:31:40;;;;;;;40.47;13.95;;;;;;;;;;6148668;23;20782;-49
2023/01/24 12:34:26;;;;;;;44.22;15.32;;;;;;;;;;6144283;23;20060;-52
2023/01/24 12:37:23;;;;;;;42.30;13.25;;;;;;;;;;6148349;23;20030;-53
2023/01/24 12:39:59;;;;;;;39.70;13.90;;;;;;;;;;6148847;23;20029;-53
2023/01/24 12:42:52;;;;;;;41.00;13.27;;;;;;;;;;6148139;23;20151;-48
2023/01/24 12:45:23;;;;;;;33.38;13.25;;;;;;;;;;6148585;23;20090;-51
2023/01/24 12:48:02;;;;;;;35.87;11.83;;;;;;;;;;6148164;23;20039;-51
2023/01/24 12:50:43;;;;;;;36.95;13.50;;;;;;;;;;6148290;23;20101;-59
2023/01/24 12:53:24;;;;;;;31.52;11.65;;;;;;;;;;6147312;23;20096;-57
2023/01/24 12:55:51;;;;;;;33.53;10.75;;;;;;;;;;6148553;23;20485;-58
2023/01/24 12:58:30;;;;;;;28.50;10.45;;;;;;;;;;6146346;23;20435;-56
2023/01/24 13:01:15;;;;;;;27.77;11.52;;;;;;;;;;6149372;23;20037;-55
2023/01/24 13:04:08;;;;;;;31.38;10.30;;;;;;;;;;6147443;23;20495;-54
2023/01/24 13:06:38;;;;;;;31.00;12.02;;;;;;;;;;6148369;23;20051;-57
2023/01/24 13:09:17;;;;;;;33.72;11.45;;;;;;;;;;6149819;23;20097;-59
2023/01/24 13:11:45;;;;;;;37.92;12.15;;;;;;;;;;6146454;23;20068;-47
2023/01/24 13:14:25;;;;;;;34.70;11.73;;;;;;;;;;6148581;23;20031;-52
2023/01/24 13:16:58;;;;;;;38.38;13.30;;;;;;;;;;6148313;23;20717;-50
2023/01/24 13:19:45;;;;;;;34.55;12.07;;;;;;;;;;6104727;23;20036;-47
2023/01/24 13:22:32;;;;;;;29.45;10.68;;;;;;;;;;6089766;23;20122;-47
2023/01/24 13:25:24;;;;;;;32.17;11.23;;;;;;;;;;6090511;23;20058;-68
2023/01/24 13:27:57;;;;;;;34.10;11.32;;;;;;;;;;6060415;23;20292;-69
2023/01/24 13:30:24;;;;;;;31.83;10.07;;;;;;;;;;6089501;23;20057;-53
2023/01/24 13:33:02;;;;;;;33.75;10.27;;;;;;;;;;6085853;23;20030;-50
2023/01/24 13:35:29;;;;;;;39.45;11.25;;;;;;;;;;6090236;23;20026;-52
2023/01/24 13:37:56;;;;;;;;;;;;;;;;;;6090108;23;20097;-50
2023/01/24 13:40:34;;;;;;;34.33;9.32;;;;;;;;;;6088729;23;19967;-51
2023/01/24 13:43:27;;;;;;;32.05;10.80;;;;;;;;;;6089404;23;20101;-52
2023/01/24 13:45:55;;;;;;;33.67;11.82;;;;;;;;;;6089619;23;20081;-69
2023/01/24 13:48:41;;;;;;;47.60;12.73;;;;;;;;;;6088656;23;20026;-72
2023/01/24 13:51:19;;;;;;;53.60;12.30;;;;;;;;;;6089155;23;20037;-71
2023/01/24 13:54:02;;;;;;;35.67;12.02;;;;;;;;;;6090417;23;20760;-72
2023/01/24 13:56:29;;;;;;;39.45;12.93;;;;;;;;;;6090963;23;20036;-72
2023/01/24 13:59:02;;;;;;;39.03;12.35;;;;;;;;;;6088125;23;20061;-71
2023/01/24 14:01:30;;;;;;;38.95;12.40;;;;;;;;;;6091171;23;20054;-72
2023/01/24 14:04:04;;;;;;;52.70;14.73;;;;;;;;;;6090925;23;20053;-51
2023/01/24 14:06:42;;;;;;;66.38;15.35;;;;;;;;;;6089998;23;20472;-53
2023/01/24 14:09:18;;;;;;;48.97;15.02;;;;;;;;;;6091195;23;20027;-53
2023/01/24 14:12:12;;;;;;;64.20;15.20;;;;;;;;;;6089781;23;20076;-49
2023/01/24 14:14:58;;;;;;;41.15;12.75;;;;;;;;;;6090744;23;20105;-52
2023/01/24 14:17:27;;;;;;;47.30;13.93;;;;;;;;;;6090142;23;20465;-51
2023/01/24 14:20:07;;;;;;;39.03;12.05;;;;;;;;;;6116850;23;20436;-52
2023/01/24 14:22:37;;;;;;;40.95;12.32;;;;;;;;;;6094703;23;20033;-72
2023/01/24 14:25:27;;;;;;;62.05;15.30;;;;;;;;;;6118995;23;20054;-60
2023/01/24 14:27:58;;;;;;;39.40;12.68;;;;;;;;;;6119124;23;20189;-61
2023/01/24 14:30:35;;;;;;;39.42;13.65;;;;;;;;;;6121152;23;20093;-60
2023/01/24 14:33:05;;;;;;;44.45;12.93;;;;;;;;;;6119401;23;20355;-61
2023/01/24 14:35:51;;;;;;;34.13;10.20;;;;;;;;;;6120427;23;20022;-61
2023/01/24 14:38:18;;;;;;;33.97;10.85;;;;;;;;;;6119057;23;20098;-60
2023/01/24 14:40:53;;;;;;;29.95;9.63;;;;;;;;;;6119767;23;20097;-61
2023/01/24 14:43:23;;;;;;;25.17;9.23;;;;;;;;;;6119934;23;20300;-60
2023/01/24 14:45:57;;;;;;;27.58;8.77;;;;;;;;;;6118997;23;20468;-59
2023/01/24 14:48:25;;;;;;;27.83;9.77;;;;;;;;;;6119969;23;20033;-59
2023/01/24 14:51:04;;;;;;;28.00;9.73;;;;;;;;;;6120000;23;20057;-60
2023/01/24 14:53:32;;;;;;;18.42;7.70;;;;;;;;;;6120031;23;20073;-59
2023/01/24 14:56:12;;;;;;;23.52;8.27;;;;;;;;;;6118145;23;20030;-61
2023/01/24 14:58:39;;;;;;;21.45;8.57;;;;;;;;;;6119816;23;20405;-61
2023/01/24 15:01:24;;;;;;;36.13;9.98;;;;;;;;;;6149247;23;20104;-56
2023/01/24 15:03:51;;;;;;;;;;;;;;;;;;6149264;23;20344;-55
2023/01/24 15:06:25;;;;;;;27.65;7.95;;;;;;;;;;6148917;23;20530;-55
2023/01/24 15:08:57;;;;;;;27.80;8.52;;;;;;;;;;6149443;23;20113;-56
2023/01/24 15:11:29;;;;;;;23.35;8.32;;;;;;;;;;6149145;23;20096;-56
2023/01/24 15:14:06;;;;;;;25.27;8.30;;;;;;;;;;6149399;23;20092;-55
2023/01/24 15:16:38;;;;;;;27.55;9.85;;;;;;;;;;6147854;23;20400;-59
2023/01/24 15:19:20;;;;;;;26.80;9.95;;;;;;;;;;6118527;23;20022;-61
2023/01/24 15:21:48;;;;;;;23.27;9.23;;;;;;;;;;6085960;23;20389;-61
2023/01/24 15:24:22;;;;;;;30.77;9.88;;;;;;;;;;6088915;23;20802;-61
2023/01/24 15:26:57;;;;;;;19.35;8.75;;;;;;;;;;6086232;23;20033;-61
2023/01/24 15:29:41;;;;;;;24.30;9.85;;;;;;;;;;6089879;23;20101;-61
2023/01/24 15:32:48;;;;;;;23.92;9.27;;;;;;;;;;6089752;23;20102;-61
2023/01/24 15:35:32;;;;;;;16.00;7.65;;;;;;;;;;6028769;23;20102;-47
2023/01/24 15:38:29;;;;;;;24.80;9.07;;;;;;;;;;6029241;23;20407;-52
2023/01/24 15:41:14;;;;;;;25.45;8.55;;;;;;;;;;6060960;23;20416;-51
2023/01/24 15:43:47;;;;;;;19.02;8.32;;;;;;;;;;6089644;23;20093;-51